sensor_id;sensor_type;location;lat;lon;timestamp;temperature;humidity
2463;DHT22;1243;54.298;10.172;2024-02-04T00:01:40;6.80;99.90
2463;DHT22;1243;54.298;10.172;2024-02-04T00:04:06;6.80;99.90
2463;DHT22;1243;54.298;10.172;2024-02-04T00:06:31;6.80;99.90
2463;DHT22;1243;54.298;10.172;2024-02-04T00:08:57;6.80;99.90
2463;DHT22;1243;54.298;10.172;2024-02-04T00:11:23;6.80;99.90
2463;DHT22;1243;54.298;10.172;2024-02-04T00:13:49;6.70;99.90
2463;DHT22;1243;54.298;10.172;2024-02-04T00:16:14;6.70;99.90
2463;DHT22;1243;54.298;10.172;2024-02-04T00:18:40;6.80;99.90
2463;DHT22;1243;54.298;10.172;2024-02-04T00:21:06;6.80;99.90
2463;DHT22;1243;54.298;10.172;2024-02-04T00:23:32;6.80;99.90
2463;DHT22;1243;54.298;10.172;2024-02-04T00:25:57;6.80;99.90
2463;DHT22;1243;54.298;10.172;2024-02-04T00:28:23;6.90;99.90
2463;DHT22;1243;54.298;10.172;2024-02-04T00:30:49;6.80;99.90
2463;DHT22;1243;54.298;10.172;2024-02-04T00:33:15;6.80;99.90
2463;DHT22;1243;54.298;10.172;2024-02-04T00:35:41;6.80;99.90
2463;DHT22;1243;54.298;10.172;2024-02-04T00:38:07;6.70;99.90
2463;DHT22;1243;54.298;10.172;2024-02-04T00:40:34;6.70;99.90
2463;DHT22;1243;54.298;10.172;2024-02-04T00:43:00;6.60;99.90
2463;DHT22;1243;54.298;10.172;2024-02-04T00:45:26;6.70;99.90
2463;DHT22;1243;54.298;10.172;2024-02-04T00:47:52;6.70;99.90
2463;DHT22;1243;54.298;10.172;2024-02-04T00:50:17;6.70;99.90
2463;DHT22;1243;54.298;10.172;2024-02-04T00:52:43;6.70;99.90
2463;DHT22;1243;54.298;10.172;2024-02-04T00:55:09;6.70;99.90
2463;DHT22;1243;54.298;10.172;2024-02-04T00:57:34;6.70;99.90
2463;DHT22;1243;54.298;10.172;2024-02-04T01:00:00;6.70;99.90
2463;DHT22;1243;54.298;10.172;2024-02-04T01:02:26;6.70;99.90
2463;DHT22;1243;54.298;10.172;2024-02-04T01:04:52;6.70;99.90
2463;DHT22;1243;54.298;10.172;2024-02-04T01:07:18;6.60;99.90
2463;DHT22;1243;54.298;10.172;2024-02-04T01:09:44;6.70;99.90
2463;DHT22;1243;54.298;10.172;2024-02-04T01:12:09;6.60;99.90
2463;DHT22;1243;54.298;10.172;2024-02-04T01:14:35;6.60;99.90
2463;DHT22;1243;54.298;10.172;2024-02-04T01:17:01;6.60;99.90
2463;DHT22;1243;54.298;10.172;2024-02-04T01:19:26;6.60;99.90
2463;DHT22;1243;54.298;10.172;2024-02-04T01:21:52;6.70;99.90
2463;DHT22;1243;54.298;10.172;2024-02-04T01:24:17;6.70;99.90
2463;DHT22;1243;54.298;10.172;2024-02-04T01:26:43;6.70;99.90
2463;DHT22;1243;54.298;10.172;2024-02-04T01:29:09;6.70;99.90
2463;DHT22;1243;54.298;10.172;2024-02-04T01:31:34;6.70;99.90
2463;DHT22;1243;54.298;10.172;2024-02-04T01:34:00;6.80;99.90
2463;DHT22;1243;54.298;10.172;2024-02-04T01:36:26;6.80;99.90
2463;DHT22;1243;54.298;10.172;2024-02-04T01:38:51;6.80;99.90
2463;DHT22;1243;54.298;10.172;2024-02-04T01:41:17;6.80;99.90
2463;DHT22;1243;54.298;10.172;2024-02-04T01:43:43;6.80;99.90
2463;DHT22;1243;54.298;10.172;2024-02-04T01:46:09;6.80;99.90
2463;DHT22;1243;54.298;10.172;2024-02-04T01:48:35;6.80;99.90
2463;DHT22;1243;54.298;10.172;2024-02-04T01:51:02;6.80;99.90
2463;DHT22;1243;54.298;10.172;2024-02-04T01:53:29;6.90;99.90
2463;DHT22;1243;54.298;10.172;2024-02-04T01:55:55;6.90;99.90
2463;DHT22;1243;54.298;10.172;2024-02-04T01:58:22;6.90;99.90
2463;DHT22;1243;54.298;10.172;2024-02-04T02:00:48;6.80;99.90
2463;DHT22;1243;54.298;10.172;2024-02-04T02:03:16;6.80;99.90
2463;DHT22;1243;54.298;10.172;2024-02-04T02:05:42;6.80;99.90
2463;DHT22;1243;54.298;10.172;2024-02-04T02:08:08;6.90;99.90
2463;DHT22;1243;54.298;10.172;2024-02-04T02:10:33;6.90;99.90
2463;DHT22;1243;54.298;10.172;2024-02-04T02:16:01;6.90;99.90
2463;DHT22;1243;54.298;10.172;2024-02-04T02:18:31;7.00;99.90
2463;DHT22;1243;54.298;10.172;2024-02-04T02:21:46;7.00;99.90
2463;DHT22;1243;54.298;10.172;2024-02-04T02:24:34;7.10;99.90
2463;DHT22;1243;54.298;10.172;2024-02-04T02:26:59;7.10;99.90
2463;DHT22;1243;54.298;10.172;2024-02-04T02:29:25;7.10;99.90
2463;DHT22;1243;54.298;10.172;2024-02-04T02:31:51;7.10;99.90
2463;DHT22;1243;54.298;10.172;2024-02-04T02:34:17;7.10;99.90
2463;DHT22;1243;54.298;10.172;2024-02-04T02:36:53;7.20;99.90
2463;DHT22;1243;54.298;10.172;2024-02-04T02:39:27;7.20;99.90
2463;DHT22;1243;54.298;10.172;2024-02-04T02:41:57;7.20;99.90
2463;DHT22;1243;54.298;10.172;2024-02-04T02:44:26;7.30;99.90
2463;DHT22;1243;54.298;10.172;2024-02-04T02:46:54;7.30;99.90
2463;DHT22;1243;54.298;10.172;2024-02-04T02:49:21;7.30;99.90
2463;DHT22;1243;54.298;10.172;2024-02-04T02:51:47;7.30;99.90
2463;DHT22;1243;54.298;10.172;2024-02-04T02:54:12;7.30;99.90
2463;DHT22;1243;54.298;10.172;2024-02-04T02:56:38;7.30;99.90
2463;DHT22;1243;54.298;10.172;2024-02-04T02:59:04;7.30;99.90
2463;DHT22;1243;54.298;10.172;2024-02-04T03:01:30;7.30;99.90
2463;DHT22;1243;54.298;10.172;2024-02-04T03:03:56;7.30;99.90
2463;DHT22;1243;54.298;10.172;2024-02-04T03:06:22;7.40;99.90
2463;DHT22;1243;54.298;10.172;2024-02-04T03:08:47;7.40;99.90
2463;DHT22;1243;54.298;10.172;2024-02-04T03:11:13;7.40;99.90
2463;DHT22;1243;54.298;10.172;2024-02-04T03:13:39;7.40;99.90
2463;DHT22;1243;54.298;10.172;2024-02-04T03:16:12;7.40;99.90
2463;DHT22;1243;54.298;10.172;2024-02-04T03:18:39;7.40;99.90
2463;DHT22;1243;54.298;10.172;2024-02-04T03:21:15;7.40;99.90
2463;DHT22;1243;54.298;10.172;2024-02-04T03:23:42;7.40;99.90
2463;DHT22;1243;54.298;10.172;2024-02-04T03:26:09;7.30;99.90
2463;DHT22;1243;54.298;10.172;2024-02-04T03:28:35;7.30;99.90
2463;DHT22;1243;54.298;10.172;2024-02-04T03:31:01;7.30;99.90
2463;DHT22;1243;54.298;10.172;2024-02-04T03:33:27;7.30;99.90
2463;DHT22;1243;54.298;10.172;2024-02-04T03:35:52;7.30;99.90
2463;DHT22;1243;54.298;10.172;2024-02-04T03:38:18;7.30;99.90
2463;DHT22;1243;54.298;10.172;2024-02-04T03:40:44;7.30;99.90
2463;DHT22;1243;54.298;10.172;2024-02-04T03:43:10;7.30;99.90
2463;DHT22;1243;54.298;10.172;2024-02-04T03:45:36;7.40;99.90
2463;DHT22;1243;54.298;10.172;2024-02-04T03:48:02;7.30;99.90
2463;DHT22;1243;54.298;10.172;2024-02-04T03:50:28;7.30;99.90
2463;DHT22;1243;54.298;10.172;2024-02-04T03:52:54;7.40;99.90
2463;DHT22;1243;54.298;10.172;2024-02-04T03:55:20;7.40;99.90
2463;DHT22;1243;54.298;10.172;2024-02-04T03:57:45;7.40;99.90
2463;DHT22;1243;54.298;10.172;2024-02-04T04:00:11;7.40;99.90
2463;DHT22;1243;54.298;10.172;2024-02-04T04:02:37;7.40;99.90
2463;DHT22;1243;54.298;10.172;2024-02-04T04:05:03;7.40;99.90
2463;DHT22;1243;54.298;10.172;2024-02-04T04:07:30;7.40;99.90
2463;DHT22;1243;54.298;10.172;2024-02-04T04:09:56;7.40;99.90
2463;DHT22;1243;54.298;10.172;2024-02-04T04:12:21;7.30;99.90
2463;DHT22;1243;54.298;10.172;2024-02-04T04:14:47;7.40;99.90
2463;DHT22;1243;54.298;10.172;2024-02-04T04:17:13;7.40;99.90
2463;DHT22;1243;54.298;10.172;2024-02-04T04:19:39;7.40;99.90
2463;DHT22;1243;54.298;10.172;2024-02-04T04:22:05;7.30;99.90
2463;DHT22;1243;54.298;10.172;2024-02-04T04:24:30;7.30;99.90
2463;DHT22;1243;54.298;10.172;2024-02-04T04:26:56;7.30;99.90
2463;DHT22;1243;54.298;10.172;2024-02-04T04:29:22;7.30;99.90
2463;DHT22;1243;54.298;10.172;2024-02-04T04:31:47;7.30;99.90
2463;DHT22;1243;54.298;10.172;2024-02-04T04:34:14;7.20;99.90
2463;DHT22;1243;54.298;10.172;2024-02-04T04:36:39;7.20;99.90
2463;DHT22;1243;54.298;10.172;2024-02-04T04:39:05;7.20;99.90
2463;DHT22;1243;54.298;10.172;2024-02-04T04:41:31;7.20;99.90
2463;DHT22;1243;54.298;10.172;2024-02-04T04:43:56;7.30;99.90
2463;DHT22;1243;54.298;10.172;2024-02-04T04:46:22;7.30;99.90
2463;DHT22;1243;54.298;10.172;2024-02-04T04:48:47;7.30;99.90
2463;DHT22;1243;54.298;10.172;2024-02-04T04:51:13;7.30;99.90
2463;DHT22;1243;54.298;10.172;2024-02-04T04:53:39;7.30;99.90
2463;DHT22;1243;54.298;10.172;2024-02-04T04:56:05;7.30;99.90
2463;DHT22;1243;54.298;10.172;2024-02-04T04:58:31;7.30;99.90
2463;DHT22;1243;54.298;10.172;2024-02-04T05:00:57;7.30;99.90
2463;DHT22;1243;54.298;10.172;2024-02-04T05:03:23;7.20;99.90
2463;DHT22;1243;54.298;10.172;2024-02-04T05:05:48;7.30;99.90
2463;DHT22;1243;54.298;10.172;2024-02-04T05:08:14;7.30;99.90
2463;DHT22;1243;54.298;10.172;2024-02-04T05:10:41;7.30;99.90
2463;DHT22;1243;54.298;10.172;2024-02-04T05:13:07;7.30;99.90
2463;DHT22;1243;54.298;10.172;2024-02-04T05:15:33;7.20;99.90
2463;DHT22;1243;54.298;10.172;2024-02-04T05:18:00;7.20;99.90
2463;DHT22;1243;54.298;10.172;2024-02-04T05:20:26;7.30;99.90
2463;DHT22;1243;54.298;10.172;2024-02-04T05:22:51;7.30;99.90
2463;DHT22;1243;54.298;10.172;2024-02-04T05:25:17;7.30;99.90
2463;DHT22;1243;54.298;10.172;2024-02-04T05:27:43;7.30;99.90
2463;DHT22;1243;54.298;10.172;2024-02-04T05:30:09;7.30;99.90
2463;DHT22;1243;54.298;10.172;2024-02-04T05:32:35;7.30;99.90
2463;DHT22;1243;54.298;10.172;2024-02-04T05:35:01;7.30;99.90
2463;DHT22;1243;54.298;10.172;2024-02-04T05:37:26;7.30;99.90
2463;DHT22;1243;54.298;10.172;2024-02-04T05:39:52;7.30;99.90
2463;DHT22;1243;54.298;10.172;2024-02-04T05:42:18;7.30;99.90
2463;DHT22;1243;54.298;10.172;2024-02-04T05:44:44;7.30;99.90
2463;DHT22;1243;54.298;10.172;2024-02-04T05:47:09;7.30;99.90
2463;DHT22;1243;54.298;10.172;2024-02-04T05:49:35;7.30;99.90
2463;DHT22;1243;54.298;10.172;2024-02-04T05:52:01;7.40;99.90
2463;DHT22;1243;54.298;10.172;2024-02-04T05:54:27;7.30;99.90
2463;DHT22;1243;54.298;10.172;2024-02-04T05:56:52;7.30;99.90
2463;DHT22;1243;54.298;10.172;2024-02-04T05:59:18;7.30;99.90
2463;DHT22;1243;54.298;10.172;2024-02-04T06:01:44;7.30;99.90
2463;DHT22;1243;54.298;10.172;2024-02-04T06:04:10;7.30;99.90
2463;DHT22;1243;54.298;10.172;2024-02-04T06:06:36;7.20;99.90
2463;DHT22;1243;54.298;10.172;2024-02-04T06:09:01;7.20;99.90
2463;DHT22;1243;54.298;10.172;2024-02-04T06:11:27;7.30;99.90
2463;DHT22;1243;54.298;10.172;2024-02-04T06:13:53;7.30;99.90
2463;DHT22;1243;54.298;10.172;2024-02-04T06:16:19;7.40;99.90
2463;DHT22;1243;54.298;10.172;2024-02-04T06:18:45;7.30;99.90
2463;DHT22;1243;54.298;10.172;2024-02-04T06:21:10;7.30;99.90
2463;DHT22;1243;54.298;10.172;2024-02-04T06:23:38;7.30;99.90
2463;DHT22;1243;54.298;10.172;2024-02-04T06:26:05;7.30;99.90
2463;DHT22;1243;54.298;10.172;2024-02-04T06:28:30;7.30;99.90
2463;DHT22;1243;54.298;10.172;2024-02-04T06:30:56;7.30;99.90
2463;DHT22;1243;54.298;10.172;2024-02-04T06:33:22;7.30;99.90
2463;DHT22;1243;54.298;10.172;2024-02-04T06:35:50;7.30;99.90
2463;DHT22;1243;54.298;10.172;2024-02-04T06:38:16;7.30;99.90
2463;DHT22;1243;54.298;10.172;2024-02-04T06:40:41;7.30;99.90
2463;DHT22;1243;54.298;10.172;2024-02-04T06:43:07;7.30;99.90
2463;DHT22;1243;54.298;10.172;2024-02-04T06:45:33;7.30;99.90
2463;DHT22;1243;54.298;10.172;2024-02-04T06:47:59;7.30;99.90
2463;DHT22;1243;54.298;10.172;2024-02-04T06:50:24;7.30;99.90
2463;DHT22;1243;54.298;10.172;2024-02-04T06:52:50;7.30;99.90
2463;DHT22;1243;54.298;10.172;2024-02-04T06:55:16;7.30;99.90
2463;DHT22;1243;54.298;10.172;2024-02-04T06:57:42;7.30;99.90
2463;DHT22;1243;54.298;10.172;2024-02-04T07:00:07;7.30;99.90
2463;DHT22;1243;54.298;10.172;2024-02-04T07:02:34;7.20;99.90
2463;DHT22;1243;54.298;10.172;2024-02-04T07:05:00;7.30;99.90
2463;DHT22;1243;54.298;10.172;2024-02-04T07:07:25;7.20;99.90
2463;DHT22;1243;54.298;10.172;2024-02-04T07:09:51;7.20;99.90
2463;DHT22;1243;54.298;10.172;2024-02-04T07:12:17;7.20;99.90
2463;DHT22;1243;54.298;10.172;2024-02-04T07:14:42;7.20;99.90
2463;DHT22;1243;54.298;10.172;2024-02-04T07:17:08;7.20;99.90
2463;DHT22;1243;54.298;10.172;2024-02-04T07:19:34;7.20;99.90
2463;DHT22;1243;54.298;10.172;2024-02-04T07:22:01;7.20;99.90
2463;DHT22;1243;54.298;10.172;2024-02-04T07:24:26;7.20;99.90
2463;DHT22;1243;54.298;10.172;2024-02-04T07:26:52;7.20;99.90
2463;DHT22;1243;54.298;10.172;2024-02-04T07:29:18;7.20;99.90
2463;DHT22;1243;54.298;10.172;2024-02-04T07:31:43;7.20;99.90
2463;DHT22;1243;54.298;10.172;2024-02-04T07:34:09;7.20;99.90
2463;DHT22;1243;54.298;10.172;2024-02-04T07:36:35;7.20;99.90
2463;DHT22;1243;54.298;10.172;2024-02-04T07:39:00;7.20;99.90
2463;DHT22;1243;54.298;10.172;2024-02-04T07:41:30;7.20;99.90
2463;DHT22;1243;54.298;10.172;2024-02-04T07:43:56;7.30;99.90
2463;DHT22;1243;54.298;10.172;2024-02-04T07:46:21;7.20;99.90
2463;DHT22;1243;54.298;10.172;2024-02-04T07:48:47;7.20;99.90
2463;DHT22;1243;54.298;10.172;2024-02-04T07:51:13;7.20;99.90
2463;DHT22;1243;54.298;10.172;2024-02-04T07:53:39;7.20;99.90
2463;DHT22;1243;54.298;10.172;2024-02-04T07:56:05;7.30;99.90
2463;DHT22;1243;54.298;10.172;2024-02-04T07:58:32;7.30;99.90
2463;DHT22;1243;54.298;10.172;2024-02-04T08:00:58;7.30;99.90
2463;DHT22;1243;54.298;10.172;2024-02-04T08:03:24;7.30;99.90
2463;DHT22;1243;54.298;10.172;2024-02-04T08:05:50;7.30;99.90
2463;DHT22;1243;54.298;10.172;2024-02-04T08:08:15;7.30;99.90
2463;DHT22;1243;54.298;10.172;2024-02-04T08:10:42;7.30;99.90
2463;DHT22;1243;54.298;10.172;2024-02-04T08:13:07;7.30;99.90
2463;DHT22;1243;54.298;10.172;2024-02-04T08:15:34;7.20;99.90
2463;DHT22;1243;54.298;10.172;2024-02-04T08:18:00;7.30;99.90
2463;DHT22;1243;54.298;10.172;2024-02-04T08:20:25;7.30;99.90
2463;DHT22;1243;54.298;10.172;2024-02-04T08:22:52;7.30;99.90
2463;DHT22;1243;54.298;10.172;2024-02-04T08:25:17;7.30;99.90
2463;DHT22;1243;54.298;10.172;2024-02-04T08:27:43;7.40;99.90
2463;DHT22;1243;54.298;10.172;2024-02-04T08:30:09;7.40;99.90
2463;DHT22;1243;54.298;10.172;2024-02-04T08:32:37;7.40;99.90
2463;DHT22;1243;54.298;10.172;2024-02-04T08:35:03;7.40;99.90
2463;DHT22;1243;54.298;10.172;2024-02-04T08:37:30;7.40;99.90
2463;DHT22;1243;54.298;10.172;2024-02-04T08:39:56;7.50;99.90
2463;DHT22;1243;54.298;10.172;2024-02-04T08:42:22;7.50;99.90
2463;DHT22;1243;54.298;10.172;2024-02-04T08:44:47;7.50;99.90
2463;DHT22;1243;54.298;10.172;2024-02-04T08:47:14;7.50;99.90
2463;DHT22;1243;54.298;10.172;2024-02-04T08:49:41;7.50;99.90
2463;DHT22;1243;54.298;10.172;2024-02-04T08:52:07;7.50;99.90
2463;DHT22;1243;54.298;10.172;2024-02-04T08:54:32;7.50;99.90
2463;DHT22;1243;54.298;10.172;2024-02-04T08:56:58;7.60;99.90
2463;DHT22;1243;54.298;10.172;2024-02-04T08:59:24;7.50;99.90
2463;DHT22;1243;54.298;10.172;2024-02-04T09:01:50;7.60;99.90
2463;DHT22;1243;54.298;10.172;2024-02-04T09:04:16;7.50;99.90
2463;DHT22;1243;54.298;10.172;2024-02-04T09:06:41;7.60;99.90
2463;DHT22;1243;54.298;10.172;2024-02-04T09:09:07;7.60;99.90
2463;DHT22;1243;54.298;10.172;2024-02-04T09:11:34;7.50;99.90
2463;DHT22;1243;54.298;10.172;2024-02-04T09:14:00;7.50;99.90
2463;DHT22;1243;54.298;10.172;2024-02-04T09:16:26;7.60;99.90
2463;DHT22;1243;54.298;10.172;2024-02-04T09:18:52;7.60;99.90
2463;DHT22;1243;54.298;10.172;2024-02-04T09:21:17;7.60;99.90
2463;DHT22;1243;54.298;10.172;2024-02-04T09:23:43;7.60;99.90
2463;DHT22;1243;54.298;10.172;2024-02-04T09:26:09;7.70;99.90
2463;DHT22;1243;54.298;10.172;2024-02-04T09:28:35;7.70;99.90
2463;DHT22;1243;54.298;10.172;2024-02-04T09:31:00;7.70;99.90
2463;DHT22;1243;54.298;10.172;2024-02-04T09:33:26;7.70;99.90
2463;DHT22;1243;54.298;10.172;2024-02-04T09:35:52;7.70;99.90
2463;DHT22;1243;54.298;10.172;2024-02-04T09:38:19;7.70;99.90
2463;DHT22;1243;54.298;10.172;2024-02-04T09:40:45;7.70;99.90
2463;DHT22;1243;54.298;10.172;2024-02-04T09:43:11;7.70;99.90
2463;DHT22;1243;54.298;10.172;2024-02-04T09:45:38;7.80;99.90
2463;DHT22;1243;54.298;10.172;2024-02-04T09:48:06;7.80;99.90
2463;DHT22;1243;54.298;10.172;2024-02-04T09:50:33;7.80;99.90
2463;DHT22;1243;54.298;10.172;2024-02-04T09:52:59;7.70;99.90
2463;DHT22;1243;54.298;10.172;2024-02-04T09:55:27;7.80;99.90
2463;DHT22;1243;54.298;10.172;2024-02-04T09:57:54;7.80;99.90
2463;DHT22;1243;54.298;10.172;2024-02-04T10:00:20;7.80;99.90
2463;DHT22;1243;54.298;10.172;2024-02-04T10:02:47;7.80;99.90
2463;DHT22;1243;54.298;10.172;2024-02-04T10:05:14;7.80;99.90
2463;DHT22;1243;54.298;10.172;2024-02-04T10:07:40;7.70;99.90
2463;DHT22;1243;54.298;10.172;2024-02-04T10:10:07;7.80;99.90
2463;DHT22;1243;54.298;10.172;2024-02-04T10:12:33;7.80;99.90
2463;DHT22;1243;54.298;10.172;2024-02-04T10:15:01;7.80;99.90
2463;DHT22;1243;54.298;10.172;2024-02-04T10:17:27;7.80;99.90
2463;DHT22;1243;54.298;10.172;2024-02-04T10:19:53;7.80;99.90
2463;DHT22;1243;54.298;10.172;2024-02-04T10:22:19;7.80;99.90
2463;DHT22;1243;54.298;10.172;2024-02-04T10:24:44;7.80;99.90
2463;DHT22;1243;54.298;10.172;2024-02-04T10:27:12;7.80;99.90
2463;DHT22;1243;54.298;10.172;2024-02-04T10:29:38;7.80;99.90
2463;DHT22;1243;54.298;10.172;2024-02-04T10:32:04;7.80;99.90
2463;DHT22;1243;54.298;10.172;2024-02-04T10:34:30;7.80;99.90
2463;DHT22;1243;54.298;10.172;2024-02-04T10:36:58;7.90;99.90
2463;DHT22;1243;54.298;10.172;2024-02-04T10:39:24;7.90;99.90
2463;DHT22;1243;54.298;10.172;2024-02-04T10:41:51;7.90;99.90
2463;DHT22;1243;54.298;10.172;2024-02-04T10:44:20;8.00;99.90
2463;DHT22;1243;54.298;10.172;2024-02-04T10:46:50;8.00;99.90
2463;DHT22;1243;54.298;10.172;2024-02-04T10:49:18;8.10;99.90
2463;DHT22;1243;54.298;10.172;2024-02-04T10:51:46;8.10;99.90
2463;DHT22;1243;54.298;10.172;2024-02-04T10:54:16;8.10;99.90
2463;DHT22;1243;54.298;10.172;2024-02-04T10:56:45;8.10;99.90
2463;DHT22;1243;54.298;10.172;2024-02-04T10:59:15;8.20;99.90
2463;DHT22;1243;54.298;10.172;2024-02-04T11:01:43;8.20;99.90
2463;DHT22;1243;54.298;10.172;2024-02-04T11:04:11;8.20;99.90
2463;DHT22;1243;54.298;10.172;2024-02-04T11:06:40;8.10;99.90
2463;DHT22;1243;54.298;10.172;2024-02-04T11:09:08;8.10;99.90
2463;DHT22;1243;54.298;10.172;2024-02-04T11:11:36;8.10;99.90
2463;DHT22;1243;54.298;10.172;2024-02-04T11:14:04;8.10;99.90
2463;DHT22;1243;54.298;10.172;2024-02-04T11:27:30;8.10;99.90
2463;DHT22;1243;54.298;10.172;2024-02-04T11:29:56;8.10;99.90
2463;DHT22;1243;54.298;10.172;2024-02-04T11:32:24;8.10;99.90
2463;DHT22;1243;54.298;10.172;2024-02-04T11:34:50;8.10;99.90
2463;DHT22;1243;54.298;10.172;2024-02-04T11:37:18;8.10;99.90
2463;DHT22;1243;54.298;10.172;2024-02-04T11:39:52;8.10;99.90
2463;DHT22;1243;54.298;10.172;2024-02-04T11:42:18;8.10;99.90
2463;DHT22;1243;54.298;10.172;2024-02-04T11:44:44;8.10;99.90
2463;DHT22;1243;54.298;10.172;2024-02-04T11:47:10;8.20;99.90
2463;DHT22;1243;54.298;10.172;2024-02-04T11:49:36;8.10;99.90
2463;DHT22;1243;54.298;10.172;2024-02-04T11:52:02;8.10;99.90
2463;DHT22;1243;54.298;10.172;2024-02-04T11:54:29;8.10;99.90
2463;DHT22;1243;54.298;10.172;2024-02-04T11:56:55;8.20;99.90
2463;DHT22;1243;54.298;10.172;2024-02-04T11:59:24;8.20;99.90
2463;DHT22;1243;54.298;10.172;2024-02-04T12:01:54;8.20;99.90
2463;DHT22;1243;54.298;10.172;2024-02-04T12:04:22;8.30;99.90
2463;DHT22;1243;54.298;10.172;2024-02-04T12:06:48;8.30;99.90
2463;DHT22;1243;54.298;10.172;2024-02-04T12:09:17;8.30;99.90
2463;DHT22;1243;54.298;10.172;2024-02-04T12:11:44;8.20;99.90
2463;DHT22;1243;54.298;10.172;2024-02-04T12:14:10;8.20;99.90
2463;DHT22;1243;54.298;10.172;2024-02-04T12:16:36;8.20;99.90
2463;DHT22;1243;54.298;10.172;2024-02-04T12:19:02;8.20;99.90
2463;DHT22;1243;54.298;10.172;2024-02-04T12:21:32;8.20;99.90
2463;DHT22;1243;54.298;10.172;2024-02-04T12:23:59;8.20;99.90
2463;DHT22;1243;54.298;10.172;2024-02-04T12:26:25;8.20;99.90
2463;DHT22;1243;54.298;10.172;2024-02-04T12:28:51;8.20;99.90
2463;DHT22;1243;54.298;10.172;2024-02-04T12:31:18;8.20;99.90
2463;DHT22;1243;54.298;10.172;2024-02-04T12:33:55;8.30;99.90
2463;DHT22;1243;54.298;10.172;2024-02-04T12:36:26;8.30;99.90
2463;DHT22;1243;54.298;10.172;2024-02-04T12:38:57;8.30;99.90
2463;DHT22;1243;54.298;10.172;2024-02-04T12:41:24;8.30;99.90
2463;DHT22;1243;54.298;10.172;2024-02-04T12:43:54;8.30;99.90
2463;DHT22;1243;54.298;10.172;2024-02-04T12:46:20;8.40;99.90
2463;DHT22;1243;54.298;10.172;2024-02-04T12:48:57;8.30;99.90
2463;DHT22;1243;54.298;10.172;2024-02-04T12:51:31;8.30;99.90
2463;DHT22;1243;54.298;10.172;2024-02-04T12:54:10;8.30;99.90
2463;DHT22;1243;54.298;10.172;2024-02-04T12:56:54;8.30;99.90
2463;DHT22;1243;54.298;10.172;2024-02-04T12:59:30;8.30;99.90
2463;DHT22;1243;54.298;10.172;2024-02-04T13:02:02;8.30;99.90
2463;DHT22;1243;54.298;10.172;2024-02-04T13:04:37;8.30;99.90
2463;DHT22;1243;54.298;10.172;2024-02-04T13:07:13;8.20;99.90
2463;DHT22;1243;54.298;10.172;2024-02-04T13:09:45;8.20;99.90
2463;DHT22;1243;54.298;10.172;2024-02-04T13:12:11;8.30;99.90
2463;DHT22;1243;54.298;10.172;2024-02-04T13:14:41;8.30;99.90
2463;DHT22;1243;54.298;10.172;2024-02-04T13:17:07;8.30;99.90
2463;DHT22;1243;54.298;10.172;2024-02-04T13:19:36;8.30;99.90
2463;DHT22;1243;54.298;10.172;2024-02-04T13:22:03;8.30;99.90
2463;DHT22;1243;54.298;10.172;2024-02-04T13:24:32;8.40;99.90
2463;DHT22;1243;54.298;10.172;2024-02-04T13:26:58;8.40;99.90
2463;DHT22;1243;54.298;10.172;2024-02-04T13:29:26;8.40;99.90
2463;DHT22;1243;54.298;10.172;2024-02-04T13:31:52;8.30;99.90
2463;DHT22;1243;54.298;10.172;2024-02-04T13:34:18;8.30;99.90
2463;DHT22;1243;54.298;10.172;2024-02-04T13:36:45;8.30;99.90
2463;DHT22;1243;54.298;10.172;2024-02-04T13:39:11;8.40;99.90
2463;DHT22;1243;54.298;10.172;2024-02-04T13:41:38;8.40;99.90
2463;DHT22;1243;54.298;10.172;2024-02-04T13:44:04;8.40;99.90
2463;DHT22;1243;54.298;10.172;2024-02-04T13:46:30;8.40;99.90
2463;DHT22;1243;54.298;10.172;2024-02-04T13:48:56;8.40;99.90
2463;DHT22;1243;54.298;10.172;2024-02-04T13:51:22;8.50;99.90
2463;DHT22;1243;54.298;10.172;2024-02-04T13:53:47;8.50;99.90
2463;DHT22;1243;54.298;10.172;2024-02-04T13:56:13;8.30;99.90
2463;DHT22;1243;54.298;10.172;2024-02-04T13:58:39;8.30;99.90
2463;DHT22;1243;54.298;10.172;2024-02-04T14:01:04;8.40;99.90
2463;DHT22;1243;54.298;10.172;2024-02-04T14:03:31;8.40;99.90
2463;DHT22;1243;54.298;10.172;2024-02-04T14:05:57;8.50;99.90
2463;DHT22;1243;54.298;10.172;2024-02-04T14:08:23;8.50;99.90
2463;DHT22;1243;54.298;10.172;2024-02-04T14:10:48;8.50;99.90
2463;DHT22;1243;54.298;10.172;2024-02-04T14:13:14;8.60;99.90
2463;DHT22;1243;54.298;10.172;2024-02-04T14:15:40;8.60;99.90
2463;DHT22;1243;54.298;10.172;2024-02-04T14:18:06;8.60;99.90
2463;DHT22;1243;54.298;10.172;2024-02-04T14:20:32;8.60;99.90
2463;DHT22;1243;54.298;10.172;2024-02-04T14:22:58;8.60;99.90
2463;DHT22;1243;54.298;10.172;2024-02-04T14:25:24;8.50;99.90
2463;DHT22;1243;54.298;10.172;2024-02-04T14:27:50;8.50;99.90
2463;DHT22;1243;54.298;10.172;2024-02-04T14:30:16;8.40;99.90
2463;DHT22;1243;54.298;10.172;2024-02-04T14:32:41;8.40;99.90
2463;DHT22;1243;54.298;10.172;2024-02-04T14:35:08;8.40;99.90
2463;DHT22;1243;54.298;10.172;2024-02-04T14:37:36;8.30;99.90
2463;DHT22;1243;54.298;10.172;2024-02-04T14:40:03;8.30;99.90
2463;DHT22;1243;54.298;10.172;2024-02-04T14:42:29;8.30;99.90
2463;DHT22;1243;54.298;10.172;2024-02-04T14:44:55;8.30;99.90
2463;DHT22;1243;54.298;10.172;2024-02-04T14:47:21;8.30;99.90
2463;DHT22;1243;54.298;10.172;2024-02-04T14:49:47;8.30;99.90
2463;DHT22;1243;54.298;10.172;2024-02-04T14:52:14;8.30;99.90
2463;DHT22;1243;54.298;10.172;2024-02-04T14:54:40;8.30;99.90
2463;DHT22;1243;54.298;10.172;2024-02-04T14:57:05;8.30;99.90
2463;DHT22;1243;54.298;10.172;2024-02-04T14:59:31;8.30;99.90
2463;DHT22;1243;54.298;10.172;2024-02-04T15:02:06;8.30;99.90
2463;DHT22;1243;54.298;10.172;2024-02-04T15:04:32;8.20;99.90
2463;DHT22;1243;54.298;10.172;2024-02-04T15:06:58;8.20;99.90
2463;DHT22;1243;54.298;10.172;2024-02-04T15:09:24;8.10;99.90
2463;DHT22;1243;54.298;10.172;2024-02-04T15:11:51;8.00;99.90
2463;DHT22;1243;54.298;10.172;2024-02-04T15:14:17;8.00;99.90
2463;DHT22;1243;54.298;10.172;2024-02-04T15:16:43;8.00;99.90
2463;DHT22;1243;54.298;10.172;2024-02-04T15:19:09;7.90;99.90
2463;DHT22;1243;54.298;10.172;2024-02-04T15:21:36;7.90;99.90
2463;DHT22;1243;54.298;10.172;2024-02-04T15:24:02;7.80;99.90
2463;DHT22;1243;54.298;10.172;2024-02-04T15:26:32;7.80;99.90
2463;DHT22;1243;54.298;10.172;2024-02-04T15:29:02;7.80;99.90
2463;DHT22;1243;54.298;10.172;2024-02-04T15:31:29;7.80;99.90
2463;DHT22;1243;54.298;10.172;2024-02-04T15:33:56;7.70;1.00
2463;DHT22;1243;54.298;10.172;2024-02-04T15:36:21;7.70;1.00
2463;DHT22;1243;54.298;10.172;2024-02-04T15:38:47;7.70;1.00
2463;DHT22;1243;54.298;10.172;2024-02-04T15:41:13;7.60;1.00
2463;DHT22;1243;54.298;10.172;2024-02-04T15:43:39;7.60;1.00
2463;DHT22;1243;54.298;10.172;2024-02-04T15:46:09;7.60;1.00
2463;DHT22;1243;54.298;10.172;2024-02-04T15:48:39;7.60;1.00
2463;DHT22;1243;54.298;10.172;2024-02-04T15:51:06;7.50;1.00
2463;DHT22;1243;54.298;10.172;2024-02-04T15:53:32;7.50;1.00
2463;DHT22;1243;54.298;10.172;2024-02-04T15:56:03;7.50;1.00
2463;DHT22;1243;54.298;10.172;2024-02-04T15:58:31;7.50;1.00
2463;DHT22;1243;54.298;10.172;2024-02-04T16:01:02;7.50;1.00
2463;DHT22;1243;54.298;10.172;2024-02-04T16:03:31;7.50;1.00
2463;DHT22;1243;54.298;10.172;2024-02-04T16:05:57;7.50;1.00
2463;DHT22;1243;54.298;10.172;2024-02-04T16:08:23;7.50;1.00
2463;DHT22;1243;54.298;10.172;2024-02-04T16:10:53;7.40;1.00
2463;DHT22;1243;54.298;10.172;2024-02-04T16:13:20;7.40;1.00